createdAt,value
2022-09-24T00:00:55.916Z,12.70
2022-09-24T00:01:55.978Z,11.20
2022-09-24T00:02:55.908Z,13.70
2022-09-24T00:03:55.860Z,11.70
2022-09-24T00:04:55.870Z,14.30
2022-09-24T00:05:55.828Z,13.10
2022-09-24T00:06:55.807Z,12.00
2022-09-24T00:07:55.790Z,10.40
2022-09-24T00:08:55.782Z,10.80
2022-09-24T00:09:55.756Z,13.00
2022-09-24T00:10:55.744Z,12.10
2022-09-24T00:11:55.723Z,10.70
2022-09-24T00:12:55.704Z,12.10
2022-09-24T00:13:55.690Z,11.70
2022-09-24T00:14:55.673Z,13.60
2022-09-24T00:15:55.678Z,12.30
2022-09-24T00:16:55.638Z,11.70
2022-09-24T00:17:55.614Z,13.00
2022-09-24T00:18:55.601Z,11.70
2022-09-24T00:19:55.584Z,12.20
2022-09-24T00:20:55.583Z,13.00
2022-09-24T00:21:55.542Z,11.90
2022-09-24T00:22:55.524Z,14.00
2022-09-24T00:23:55.506Z,11.90
2022-09-24T00:24:55.492Z,13.40
2022-09-24T00:25:55.475Z,14.40
2022-09-24T00:26:55.453Z,10.90
2022-09-24T00:27:55.437Z,13.60
2022-09-24T00:28:55.419Z,11.10
2022-09-24T00:29:55.400Z,13.40
2022-09-24T00:30:55.426Z,13.30
2022-09-24T00:31:55.473Z,13.70
2022-09-24T00:32:55.355Z,14.40
2022-09-24T00:33:55.333Z,11.90
2022-09-24T00:34:55.323Z,13.70
2022-09-24T00:35:55.298Z,13.70
2022-09-24T00:36:55.301Z,14.10
2022-09-24T00:37:55.261Z,15.00
2022-09-24T00:38:55.256Z,12.80
2022-09-24T00:39:55.226Z,17.70
2022-09-24T00:40:55.210Z,13.70
2022-09-24T00:41:55.191Z,15.10
2022-09-24T00:42:55.174Z,16.20
2022-09-24T00:43:55.157Z,16.10
2022-09-24T00:44:55.139Z,14.10
2022-09-24T00:45:55.129Z,13.40
2022-09-24T00:46:55.229Z,16.50
2022-09-24T00:47:55.089Z,12.80
2022-09-24T00:48:55.066Z,14.20
2022-09-24T00:49:55.048Z,13.30
2022-09-24T00:50:55.037Z,13.80
2022-09-24T00:51:55.013Z,12.90
2022-09-24T00:52:55.017Z,13.70
2022-09-24T00:53:54.980Z,13.70
2022-09-24T00:54:54.968Z,13.80
2022-09-24T00:55:54.945Z,14.80
2022-09-24T00:56:54.933Z,13.80
2022-09-24T00:57:54.912Z,14.50
2022-09-24T00:58:54.893Z,13.60
2022-09-24T00:59:54.881Z,14.50
2022-09-24T01:00:54.919Z,13.20
2022-09-24T01:01:54.877Z,14.60
2022-09-24T01:02:54.826Z,13.60
2022-09-24T01:03:54.809Z,12.60
2022-09-24T01:04:56.552Z,16.60
2022-09-24T01:05:54.771Z,14.50
2022-09-24T01:06:54.748Z,12.60
2022-09-24T01:07:54.734Z,13.90
2022-09-24T01:08:54.744Z,14.50
2022-09-24T01:09:54.702Z,12.80
2022-09-24T01:10:54.691Z,13.00
2022-09-24T01:11:54.662Z,15.80
2022-09-24T01:12:54.646Z,13.10
2022-09-24T01:13:54.629Z,14.00
2022-09-24T01:14:54.621Z,11.90
2022-09-24T01:15:54.676Z,14.80
2022-09-24T01:16:54.579Z,12.40
2022-09-24T01:17:54.562Z,12.90
2022-09-24T01:18:54.540Z,13.20
2022-09-24T01:19:54.528Z,16.20
2022-09-24T01:20:54.508Z,14.10
2022-09-24T01:21:54.487Z,13.60
2022-09-24T01:22:54.475Z,17.00
2022-09-24T01:23:54.452Z,14.40
2022-09-24T01:24:54.457Z,15.80
2022-09-24T01:25:54.415Z,15.90
2022-09-24T01:26:54.396Z,12.90
2022-09-24T01:27:54.384Z,11.60
2022-09-24T01:28:54.369Z,14.90
2022-09-24T01:29:54.348Z,14.90
2022-09-24T01:30:54.330Z,12.10
2022-09-24T01:31:54.364Z,12.90
2022-09-24T01:32:54.295Z,14.40
2022-09-24T01:33:54.278Z,14.10
2022-09-24T01:34:54.258Z,13.70
2022-09-24T01:35:54.242Z,15.80
2022-09-24T01:36:54.233Z,14.50
2022-09-24T01:37:54.209Z,16.50
2022-09-24T01:38:54.190Z,18.00
2022-09-24T01:39:54.170Z,18.10
2022-09-24T01:40:54.270Z,14.90
2022-09-24T01:41:54.140Z,15.50
2022-09-24T01:42:54.118Z,14.60
2022-09-24T01:43:54.098Z,15.70
2022-09-24T01:44:54.080Z,16.20
2022-09-24T01:45:54.065Z,15.40
2022-09-24T01:46:54.094Z,16.80
2022-09-24T01:47:54.031Z,15.40
2022-09-24T01:48:54.013Z,17.60
2022-09-24T01:49:53.998Z,15.10
2022-09-24T01:50:53.975Z,17.70
2022-09-24T01:51:53.957Z,16.40
2022-09-24T01:52:53.945Z,15.70
2022-09-24T01:53:53.919Z,19.10
2022-09-24T01:54:53.904Z,17.50
2022-09-24T01:55:53.891Z,18.10
2022-09-24T01:56:53.891Z,19.40
2022-09-24T01:57:53.850Z,19.70
2022-09-24T01:58:53.831Z,16.90
2022-09-24T01:59:53.813Z,19.00
2022-09-24T02:00:53.857Z,19.80
2022-09-24T02:01:53.884Z,19.40
2022-09-24T02:02:53.761Z,18.50
2022-09-24T02:03:53.745Z,19.10
2022-09-24T02:04:53.731Z,17.50
2022-09-24T02:05:53.708Z,18.70
2022-09-24T02:06:53.692Z,18.40
2022-09-24T02:07:53.674Z,19.60
2022-09-24T02:08:53.656Z,20.70
2022-09-24T02:09:53.641Z,19.00
2022-09-24T02:10:53.619Z,23.30
2022-09-24T02:11:53.601Z,20.80
2022-09-24T02:12:53.600Z,20.40
2022-09-24T02:13:53.567Z,22.00
2022-09-24T02:14:53.549Z,19.80
2022-09-24T02:15:53.593Z,23.10
2022-09-24T02:16:53.514Z,20.90
2022-09-24T02:17:53.489Z,20.40
2022-09-24T02:18:53.473Z,21.00
2022-09-24T02:19:53.460Z,20.10
2022-09-24T02:20:53.443Z,19.70
2022-09-24T02:21:53.425Z,20.90
2022-09-24T02:22:53.405Z,22.30
2022-09-24T02:23:53.397Z,24.50
2022-09-24T02:24:53.370Z,21.80
2022-09-24T02:25:53.348Z,22.30
2022-09-24T02:26:53.338Z,23.40
2022-09-24T02:27:53.315Z,21.70
2022-09-24T02:28:53.319Z,22.30
2022-09-24T02:29:53.282Z,24.10
2022-09-24T02:30:53.261Z,21.20
2022-09-24T02:31:53.343Z,23.10
2022-09-24T02:32:53.230Z,22.90
2022-09-24T02:33:53.212Z,21.80
2022-09-24T02:34:53.189Z,23.80
2022-09-24T02:35:53.179Z,24.40
2022-09-24T02:36:53.156Z,21.50
2022-09-24T02:37:53.131Z,23.60
2022-09-24T02:38:53.124Z,21.90
2022-09-24T02:39:53.093Z,22.40
2022-09-24T02:40:53.144Z,23.20
2022-09-24T02:41:53.057Z,24.30
2022-09-24T02:42:53.042Z,23.20
2022-09-24T02:43:53.036Z,24.80
2022-09-24T02:44:53.029Z,26.40
2022-09-24T02:45:52.987Z,22.70
2022-09-24T02:46:53.049Z,25.90
2022-09-24T02:47:52.952Z,22.80
2022-09-24T02:48:52.936Z,21.80
2022-09-24T02:49:52.919Z,25.40
2022-09-24T02:50:52.896Z,23.00
2022-09-24T02:51:52.885Z,22.50
2022-09-24T02:52:52.866Z,25.30
2022-09-24T02:53:52.849Z,24.60
2022-09-24T02:54:52.832Z,21.50
2022-09-24T02:55:52.809Z,22.50
2022-09-24T02:56:52.796Z,22.30
2022-09-24T02:57:52.772Z,25.40
2022-09-24T02:58:52.760Z,25.50
2022-09-24T02:59:52.740Z,23.60
2022-09-24T03:00:52.740Z,22.60
2022-09-24T03:01:52.818Z,25.00
2022-09-24T03:02:52.770Z,22.00
2022-09-24T03:03:52.667Z,23.80
2022-09-24T03:04:52.649Z,24.90
2022-09-24T03:05:52.634Z,25.60
2022-09-24T03:06:52.613Z,23.30
2022-09-24T03:07:52.595Z,23.20
2022-09-24T03:08:52.577Z,26.10
2022-09-24T03:09:52.561Z,25.20
2022-09-24T03:10:52.546Z,27.50
2022-09-24T03:11:52.522Z,24.90
2022-09-24T03:12:52.513Z,24.80
2022-09-24T03:13:52.493Z,26.20
2022-09-24T03:14:52.468Z,24.50
2022-09-24T03:15:52.533Z,26.20
2022-09-24T03:16:52.457Z,27.10
2022-09-24T03:17:52.415Z,22.60
2022-09-24T03:18:52.396Z,26.40
2022-09-24T03:19:52.380Z,24.80
2022-09-24T03:20:52.361Z,24.60
2022-09-24T03:21:52.342Z,25.40
2022-09-24T03:22:52.325Z,25.20
2022-09-24T03:23:52.305Z,25.20
2022-09-24T03:24:52.293Z,25.30
2022-09-24T03:25:52.273Z,25.80
2022-09-24T03:26:52.262Z,27.00
2022-09-24T03:27:52.235Z,26.00
2022-09-24T03:28:52.221Z,26.90
2022-09-24T03:29:52.195Z,24.00
2022-09-24T03:30:52.183Z,24.10
2022-09-24T03:31:52.258Z,24.20
2022-09-24T03:32:52.166Z,25.20
2022-09-24T03:33:52.128Z,24.30
2022-09-24T03:34:52.116Z,24.00
2022-09-24T03:35:52.092Z,25.00
2022-09-24T03:36:52.072Z,26.70
2022-09-24T03:37:52.052Z,23.60
2022-09-24T03:38:52.039Z,25.30
2022-09-24T03:39:52.015Z,24.50
2022-09-24T03:40:52.104Z,25.80
2022-09-24T03:41:51.983Z,23.70
2022-09-24T03:42:51.963Z,24.80
2022-09-24T03:43:51.945Z,26.00
2022-09-24T03:44:51.927Z,23.60
2022-09-24T03:45:51.908Z,23.90
2022-09-24T03:46:52.007Z,24.80
2022-09-24T03:47:51.873Z,27.60
2022-09-24T03:48:51.966Z,27.40
2022-09-24T03:49:51.835Z,25.30
2022-09-24T03:50:51.817Z,24.70
2022-09-24T03:51:51.822Z,25.80
2022-09-24T03:52:51.786Z,25.90
2022-09-24T03:53:51.767Z,26.20
2022-09-24T03:54:51.745Z,24.90
2022-09-24T03:55:51.729Z,27.50
2022-09-24T03:56:51.711Z,25.80
2022-09-24T03:57:51.687Z,27.80
2022-09-24T03:58:51.675Z,24.60
2022-09-24T03:59:51.659Z,29.10
2022-09-24T04:00:51.643Z,25.30
2022-09-24T04:01:51.700Z,24.70
2022-09-24T04:02:51.733Z,25.30
2022-09-24T04:03:51.585Z,25.90
2022-09-24T04:04:51.589Z,26.50
2022-09-24T04:05:51.544Z,26.00
2022-09-24T04:06:51.533Z,26.80
2022-09-24T04:07:51.513Z,26.10
2022-09-24T04:08:51.498Z,27.00
2022-09-24T04:09:51.469Z,25.00
2022-09-24T04:10:51.455Z,26.60
2022-09-24T04:11:51.455Z,26.20
2022-09-24T04:12:51.414Z,25.70
2022-09-24T04:13:51.415Z,27.30
2022-09-24T04:14:51.383Z,27.00
2022-09-24T04:15:51.411Z,25.60
2022-09-24T04:16:51.345Z,28.00
2022-09-24T04:17:51.329Z,27.20
2022-09-24T04:18:51.312Z,27.30
2022-09-24T04:19:51.293Z,31.10
2022-09-24T04:20:51.298Z,27.30
2022-09-24T04:21:51.250Z,28.10
2022-09-24T04:22:51.238Z,30.60
2022-09-24T04:23:51.217Z,27.40
2022-09-24T04:24:51.198Z,26.60
2022-09-24T04:25:51.183Z,26.20
2022-09-24T04:26:51.165Z,25.80
2022-09-24T04:27:51.143Z,26.70
2022-09-24T04:28:51.123Z,25.70
2022-09-24T04:29:51.106Z,29.70
2022-09-24T04:30:51.207Z,26.90
2022-09-24T04:31:51.144Z,26.10
2022-09-24T04:32:51.055Z,26.50
2022-09-24T04:33:51.029Z,27.50
2022-09-24T04:34:51.017Z,25.30
2022-09-24T04:35:50.997Z,25.40
2022-09-24T04:36:51.002Z,28.50
2022-09-24T04:37:50.967Z,26.80
2022-09-24T04:38:50.946Z,28.30
2022-09-24T04:39:50.923Z,27.80
2022-09-24T04:40:50.959Z,26.10
2022-09-24T04:41:50.891Z,27.10
2022-09-24T04:42:50.875Z,27.20
2022-09-24T04:43:50.853Z,27.80
2022-09-24T04:44:55.905Z,27.50
2022-09-24T04:45:50.816Z,27.50
2022-09-24T04:46:50.862Z,26.60
2022-09-24T04:47:50.778Z,27.00
2022-09-24T04:48:50.761Z,27.30
2022-09-24T04:49:50.741Z,26.80
2022-09-24T04:50:50.723Z,28.00
2022-09-24T04:51:50.704Z,27.50
2022-09-24T04:52:50.709Z,25.40
2022-09-24T04:53:50.670Z,28.20
2022-09-24T04:54:50.650Z,27.70
2022-09-24T04:55:50.628Z,28.40
2022-09-24T04:56:50.616Z,26.70
2022-09-24T04:57:50.593Z,28.80
2022-09-24T04:58:50.583Z,27.80
2022-09-24T04:59:50.558Z,28.40
2022-09-24T05:00:50.540Z,25.70
2022-09-24T05:01:50.681Z,25.80
2022-09-24T05:02:50.643Z,26.30
2022-09-24T05:03:50.484Z,28.60
2022-09-24T05:04:50.465Z,28.40
2022-09-24T05:05:50.457Z,28.90
2022-09-24T05:06:50.429Z,30.60
2022-09-24T05:07:50.412Z,29.10
2022-09-24T05:08:50.416Z,27.60
2022-09-24T05:09:50.381Z,31.20
2022-09-24T05:10:50.356Z,29.60
2022-09-24T05:11:50.337Z,27.60
2022-09-24T05:12:50.316Z,28.40
2022-09-24T05:13:50.301Z,30.00
2022-09-24T05:14:50.282Z,29.30
2022-09-24T05:15:50.308Z,31.60
2022-09-24T05:16:50.244Z,28.70
2022-09-24T05:17:50.227Z,26.50
2022-09-24T05:18:50.203Z,28.00
2022-09-24T05:19:50.193Z,29.80
2022-09-24T05:20:50.170Z,31.00
2022-09-24T05:21:50.149Z,28.90
2022-09-24T05:22:50.137Z,29.20
2022-09-24T05:23:50.109Z,29.50
2022-09-24T05:24:50.117Z,29.80
2022-09-24T05:25:50.074Z,31.00
2022-09-24T05:26:50.057Z,30.00
2022-09-24T05:27:50.038Z,29.60
2022-09-24T05:28:50.023Z,30.40
2022-09-24T05:29:50.006Z,30.00
2022-09-24T05:30:50.035Z,31.70
2022-09-24T05:31:50.045Z,32.20
2022-09-24T05:32:49.945Z,30.60
2022-09-24T05:33:49.928Z,31.40
2022-09-24T05:34:49.911Z,30.50
2022-09-24T05:35:49.895Z,29.80
2022-09-24T05:36:49.873Z,31.50
2022-09-24T05:37:49.910Z,29.70
2022-09-24T05:38:49.833Z,28.80
2022-09-24T05:39:49.816Z,28.90
2022-09-24T05:40:49.932Z,32.00
2022-09-24T05:41:49.779Z,30.90
2022-09-24T05:42:49.762Z,30.70
2022-09-24T05:43:49.740Z,30.10
2022-09-24T05:44:52.288Z,31.10
2022-09-24T05:45:49.705Z,33.50
2022-09-24T05:46:49.795Z,32.40
2022-09-24T05:47:49.670Z,31.40
2022-09-24T05:48:49.648Z,29.90
2022-09-24T05:49:49.632Z,32.30
2022-09-24T05:50:49.610Z,32.20
2022-09-24T05:51:49.591Z,31.40
2022-09-24T05:52:49.577Z,32.30
2022-09-24T05:53:49.583Z,32.40
2022-09-24T05:54:49.560Z,32.30
2022-09-24T05:55:49.527Z,34.30
2022-09-24T05:56:49.532Z,34.00
2022-09-24T05:57:49.491Z,29.80
2022-09-24T05:58:49.466Z,32.70
2022-09-24T05:59:49.455Z,33.50
2022-09-24T06:00:49.428Z,33.70
2022-09-24T06:01:49.470Z,32.40
2022-09-24T06:02:49.434Z,31.50
2022-09-24T06:03:49.371Z,29.60
2022-09-24T06:04:49.351Z,31.90
2022-09-24T06:05:49.338Z,31.60
2022-09-24T06:06:49.313Z,34.10
2022-09-24T06:07:49.295Z,34.40
2022-09-24T06:08:49.279Z,32.80
2022-09-24T06:09:49.259Z,32.20
2022-09-24T06:10:49.240Z,32.80
2022-09-24T06:11:49.232Z,32.50
2022-09-24T06:12:49.227Z,31.90
2022-09-24T06:13:49.187Z,33.00
2022-09-24T06:14:49.165Z,34.00
2022-09-24T06:15:49.230Z,31.10
2022-09-24T06:16:49.133Z,30.70
2022-09-24T06:17:49.132Z,29.70
2022-09-24T06:18:49.093Z,29.10
2022-09-24T06:19:49.076Z,30.20
2022-09-24T06:20:49.058Z,29.00
2022-09-24T06:21:49.040Z,28.50
2022-09-24T06:22:49.024Z,29.30
2022-09-24T06:23:49.003Z,31.10
2022-09-24T06:24:48.990Z,29.60
2022-09-24T06:25:48.961Z,28.30
2022-09-24T06:26:48.945Z,28.60
2022-09-24T06:27:48.929Z,29.90
2022-09-24T06:28:49.263Z,28.80
2022-09-24T06:29:48.892Z,30.20
2022-09-24T06:30:48.877Z,31.80
2022-09-24T06:31:48.965Z,30.30
2022-09-24T06:32:48.834Z,30.30
2022-09-24T06:33:48.816Z,30.40
2022-09-24T06:34:48.797Z,32.50
2022-09-24T06:35:48.777Z,32.10
2022-09-24T06:36:48.768Z,28.40
2022-09-24T06:37:48.748Z,31.50
2022-09-24T06:38:48.722Z,29.10
2022-09-24T06:39:48.705Z,32.90
2022-09-24T06:40:48.785Z,31.00
2022-09-24T06:41:48.668Z,30.80
2022-09-24T06:42:48.649Z,31.10
2022-09-24T06:43:48.632Z,31.30
2022-09-24T06:44:48.635Z,29.40
2022-09-24T06:45:48.591Z,31.20
2022-09-24T06:46:48.676Z,34.00
2022-09-24T06:47:48.561Z,31.40
2022-09-24T06:48:48.540Z,32.00
2022-09-24T06:49:48.521Z,31.40
2022-09-24T06:50:48.503Z,31.40
2022-09-24T06:51:48.492Z,29.10
2022-09-24T06:52:48.465Z,29.70
2022-09-24T06:53:48.453Z,33.20
2022-09-24T06:54:48.429Z,30.60
2022-09-24T06:55:48.416Z,30.70
2022-09-24T06:56:48.395Z,34.00
2022-09-24T06:57:48.382Z,30.50
2022-09-24T06:58:48.359Z,30.50
2022-09-24T06:59:48.338Z,32.90
2022-09-24T07:00:48.398Z,31.00
2022-09-24T07:01:48.392Z,32.50
2022-09-24T07:02:48.283Z,31.10
2022-09-24T07:03:48.265Z,31.60
2022-09-24T07:04:48.244Z,32.70
2022-09-24T07:05:48.229Z,31.90
2022-09-24T07:06:48.207Z,32.80
2022-09-24T07:07:48.190Z,33.50
2022-09-24T07:08:48.174Z,34.30
2022-09-24T07:09:48.157Z,34.20
2022-09-24T07:10:48.140Z,34.50
2022-09-24T07:11:48.120Z,32.80
2022-09-24T07:12:48.101Z,34.10
2022-09-24T07:13:48.084Z,33.60
2022-09-24T07:14:48.063Z,32.90
2022-09-24T07:15:48.072Z,37.80
2022-09-24T07:16:48.048Z,33.90
2022-09-24T07:17:48.008Z,32.90
2022-09-24T07:18:47.993Z,35.00
2022-09-24T07:19:47.975Z,34.90
2022-09-24T07:20:47.953Z,35.60
2022-09-24T07:21:47.940Z,33.90
2022-09-24T07:22:47.918Z,35.10
2022-09-24T07:23:47.904Z,34.90
2022-09-24T07:24:47.886Z,36.00
2022-09-24T07:25:47.867Z,36.80
2022-09-24T07:26:47.855Z,38.30
2022-09-24T07:27:47.830Z,34.00
2022-09-24T07:28:47.812Z,40.40
2022-09-24T07:29:47.797Z,35.00
2022-09-24T07:30:47.780Z,35.60
2022-09-24T07:31:47.864Z,34.70
2022-09-24T07:32:47.760Z,34.30
2022-09-24T07:33:47.730Z,37.20
2022-09-24T07:34:47.705Z,37.80
2022-09-24T07:35:47.690Z,33.80
2022-09-24T07:36:47.674Z,35.20
2022-09-24T07:37:47.655Z,35.70
2022-09-24T07:38:47.648Z,37.10
2022-09-24T07:39:47.622Z,37.40
2022-09-24T07:40:47.723Z,35.60
2022-09-24T07:41:47.581Z,36.70
2022-09-24T07:42:47.563Z,36.40
2022-09-24T07:43:47.547Z,35.00
2022-09-24T07:44:47.532Z,35.00
2022-09-24T07:45:47.510Z,34.10
2022-09-24T07:46:47.561Z,33.60
2022-09-24T07:47:47.483Z,34.30
2022-09-24T07:48:47.564Z,35.60
2022-09-24T07:49:47.443Z,36.00
2022-09-24T07:50:47.421Z,35.40
2022-09-24T07:51:47.414Z,34.80
2022-09-24T07:52:47.386Z,36.50
2022-09-24T07:53:47.373Z,36.50
2022-09-24T07:54:47.353Z,39.40
2022-09-24T07:55:47.337Z,39.60
2022-09-24T07:56:47.321Z,36.80
2022-09-24T07:57:47.301Z,37.50
2022-09-24T07:58:47.283Z,38.90
2022-09-24T07:59:47.266Z,36.00
2022-09-24T08:00:47.247Z,35.50
2022-09-24T08:01:47.251Z,37.00
2022-09-24T08:02:47.212Z,35.00
2022-09-24T08:03:47.321Z,36.30
2022-09-24T08:04:47.200Z,36.50
2022-09-24T08:05:47.161Z,38.00
2022-09-24T08:06:47.807Z,35.80
2022-09-24T08:07:47.129Z,37.40
2022-09-24T08:08:47.106Z,33.60
2022-09-24T08:09:47.094Z,36.80
2022-09-24T08:10:47.075Z,33.60
2022-09-24T08:11:47.059Z,34.30
2022-09-24T08:12:47.038Z,34.90
2022-09-24T08:13:47.024Z,32.50
2022-09-24T08:14:47.007Z,35.80
2022-09-24T08:15:47.057Z,37.10
2022-09-24T08:16:46.973Z,36.90
2022-09-24T08:17:46.952Z,34.80
2022-09-24T08:18:46.934Z,35.80
2022-09-24T08:19:46.917Z,35.10
2022-09-24T08:20:46.921Z,34.40
2022-09-24T08:21:46.880Z,34.00
2022-09-24T08:22:46.863Z,34.40
2022-09-24T08:23:46.846Z,34.70
2022-09-24T08:24:46.835Z,38.00
2022-09-24T08:25:46.814Z,35.30
2022-09-24T08:26:46.795Z,39.30
2022-09-24T08:27:46.779Z,34.40
2022-09-24T08:28:46.769Z,35.10
2022-09-24T08:29:46.750Z,34.90
2022-09-24T08:30:46.806Z,37.00
2022-09-24T08:31:46.758Z,34.80
2022-09-24T08:32:46.691Z,35.30
2022-09-24T08:33:46.672Z,36.20
2022-09-24T08:34:46.655Z,33.50
2022-09-24T08:35:46.637Z,35.00
2022-09-24T08:36:46.647Z,35.70
2022-09-24T08:37:46.607Z,36.70
2022-09-24T08:38:46.589Z,33.60
2022-09-24T08:39:46.575Z,32.80
2022-09-24T08:40:46.667Z,34.60
2022-09-24T08:41:46.549Z,34.10
2022-09-24T08:42:46.526Z,34.90
2022-09-24T08:43:46.506Z,34.10
2022-09-24T08:44:46.499Z,32.90
2022-09-24T08:45:46.470Z,32.20
2022-09-24T08:46:46.590Z,31.80
2022-09-24T08:47:46.440Z,34.00
2022-09-24T08:48:46.429Z,33.50
2022-09-24T08:49:46.402Z,34.50
2022-09-24T08:50:46.390Z,32.20
2022-09-24T08:51:46.373Z,32.90
2022-09-24T08:52:46.459Z,35.20
2022-09-24T08:53:46.337Z,32.10
2022-09-24T08:54:46.320Z,33.00
2022-09-24T08:55:46.308Z,32.60
2022-09-24T08:56:46.291Z,34.10
2022-09-24T08:57:46.270Z,31.60
2022-09-24T08:58:46.254Z,32.30
2022-09-24T08:59:46.237Z,34.60
2022-09-24T09:00:46.222Z,31.70
2022-09-24T09:01:46.358Z,36.20
2022-09-24T09:02:46.266Z,33.90
2022-09-24T09:03:46.172Z,32.40
2022-09-24T09:04:46.155Z,31.90
2022-09-24T09:05:49.510Z,30.40
2022-09-24T09:06:46.127Z,31.20
2022-09-24T09:07:46.105Z,31.10
2022-09-24T09:09:05.708Z,32.50
2022-09-24T09:09:46.074Z,31.60
2022-09-24T09:10:46.057Z,30.50
2022-09-24T09:11:46.044Z,30.20
2022-09-24T09:12:46.026Z,32.70
2022-09-24T09:13:46.006Z,32.10
2022-09-24T09:14:46.001Z,30.40
2022-09-24T09:15:46.041Z,33.80
2022-09-24T09:16:45.958Z,31.30
2022-09-24T09:17:45.948Z,33.60
2022-09-24T09:18:45.931Z,32.90
2022-09-24T09:19:49.185Z,30.30
2022-09-24T09:20:45.915Z,33.70
2022-09-24T09:21:45.886Z,30.70
2022-09-24T09:22:45.889Z,31.00
2022-09-24T09:23:45.848Z,31.10
2022-09-24T09:24:45.854Z,32.60
2022-09-24T09:25:45.814Z,29.80
2022-09-24T09:26:45.799Z,32.90
2022-09-24T09:27:45.785Z,31.40
2022-09-24T09:28:45.775Z,30.10
2022-09-24T09:29:45.752Z,30.60
2022-09-24T09:30:45.737Z,33.00
2022-09-24T09:31:45.831Z,30.20
2022-09-24T09:32:45.711Z,31.60
2022-09-24T09:33:45.692Z,30.80
2022-09-24T09:34:45.679Z,29.40
2022-09-24T09:35:45.658Z,29.60
2022-09-24T09:36:45.650Z,27.20
2022-09-24T09:37:45.631Z,26.70
2022-09-24T09:38:45.617Z,26.50
2022-09-24T09:39:45.599Z,26.20
2022-09-24T09:40:45.639Z,26.40
2022-09-24T09:41:45.569Z,27.50
2022-09-24T09:42:45.564Z,24.40
2022-09-24T09:43:45.539Z,27.10
2022-09-24T09:44:45.524Z,24.30
2022-09-24T09:45:45.510Z,27.20
2022-09-24T09:46:45.588Z,25.70
2022-09-24T09:47:45.486Z,23.80
2022-09-24T09:48:45.469Z,24.30
2022-09-24T09:49:45.456Z,24.50
2022-09-24T09:50:45.436Z,27.30
2022-09-24T09:51:45.419Z,25.40
2022-09-24T09:52:45.409Z,23.50
2022-09-24T09:53:45.390Z,27.40
2022-09-24T09:54:45.375Z,26.60
2022-09-24T09:55:45.361Z,26.00
2022-09-24T09:56:45.384Z,28.10
2022-09-24T09:57:45.326Z,25.70
2022-09-24T09:58:45.315Z,27.30
2022-09-24T09:59:45.303Z,26.20
2022-09-24T10:00:45.283Z,22.30
2022-09-24T10:01:45.331Z,21.80
2022-09-24T10:02:45.357Z,24.00
2022-09-24T10:03:45.345Z,22.70
2022-09-24T10:04:45.228Z,23.50
2022-09-24T10:05:45.215Z,19.70
2022-09-24T10:06:45.198Z,24.20
2022-09-24T10:07:45.178Z,21.50
2022-09-24T10:08:45.166Z,22.50
2022-09-24T10:09:45.150Z,20.00
2022-09-24T10:10:45.132Z,25.80
2022-09-24T10:11:45.119Z,25.00
2022-09-24T10:12:45.126Z,23.20
2022-09-24T10:13:45.088Z,22.10
2022-09-24T10:14:45.072Z,20.90
2022-09-24T10:15:45.699Z,18.70
2022-09-24T10:16:45.129Z,23.00
2022-09-24T10:17:45.037Z,23.90
2022-09-24T10:18:45.013Z,20.10
2022-09-24T10:19:44.999Z,23.50
2022-09-24T10:20:44.987Z,20.70
2022-09-24T10:21:44.971Z,21.90
2022-09-24T10:22:44.954Z,21.90
2022-09-24T10:23:44.935Z,24.10
2022-09-24T10:24:44.922Z,23.40
2022-09-24T10:25:44.905Z,21.50
2022-09-24T10:26:45.660Z,23.70
2022-09-24T10:27:44.877Z,23.70
2022-09-24T10:28:44.880Z,20.10
2022-09-24T10:29:44.842Z,22.90
2022-09-24T10:30:44.833Z,20.40
2022-09-24T10:31:44.859Z,21.40
2022-09-24T10:32:44.809Z,20.70
2022-09-24T10:33:44.785Z,24.00
2022-09-24T10:34:44.774Z,20.90
2022-09-24T10:35:44.756Z,20.30
2022-09-24T10:36:44.742Z,19.20
2022-09-24T10:37:44.723Z,21.70
2022-09-24T10:38:44.719Z,20.60
2022-09-24T10:39:44.701Z,20.00
2022-09-24T10:40:44.729Z,20.10
2022-09-24T10:41:44.669Z,18.80
2022-09-24T10:42:44.648Z,20.20
2022-09-24T10:43:44.639Z,19.70
2022-09-24T10:44:48.064Z,19.10
2022-09-24T10:45:44.613Z,17.60
2022-09-24T10:46:44.624Z,17.90
2022-09-24T10:47:44.569Z,16.70
2022-09-24T10:48:44.557Z,15.40
2022-09-24T10:49:44.545Z,14.60
2022-09-24T10:50:44.531Z,15.50
2022-09-24T10:51:44.517Z,14.10
2022-09-24T10:52:44.502Z,16.00
2022-09-24T10:53:44.481Z,15.50
2022-09-24T10:54:44.469Z,14.80
2022-09-24T10:55:44.453Z,14.70
2022-09-24T10:56:46.545Z,13.60
2022-09-24T10:57:44.426Z,14.10
2022-09-24T10:58:44.408Z,16.50
2022-09-24T10:59:44.397Z,13.20
2022-09-24T11:00:44.403Z,18.40
2022-09-24T11:01:44.432Z,14.50
2022-09-24T11:02:44.419Z,14.10
2022-09-24T11:03:44.334Z,12.10
2022-09-24T11:04:44.319Z,13.10
2022-09-24T11:05:44.306Z,16.10
2022-09-24T11:06:44.291Z,14.40
2022-09-24T11:07:44.276Z,13.50
2022-09-24T11:08:44.257Z,14.70
2022-09-24T11:09:44.240Z,14.10
2022-09-24T11:10:44.233Z,14.00
2022-09-24T11:11:44.211Z,14.10
2022-09-24T11:12:44.199Z,13.00
2022-09-24T11:13:46.872Z,16.50
2022-09-24T11:14:44.173Z,14.50
2022-09-24T11:15:44.184Z,15.70
2022-09-24T11:16:44.157Z,14.50
2022-09-24T11:17:44.119Z,15.30
2022-09-24T11:18:44.103Z,15.70
2022-09-24T11:19:44.089Z,16.50
2022-09-24T11:20:44.075Z,13.60
2022-09-24T11:21:44.057Z,13.20
2022-09-24T11:22:44.066Z,13.40
2022-09-24T11:23:44.028Z,12.40
2022-09-24T11:24:44.010Z,14.50
2022-09-24T11:25:44.000Z,13.60
2022-09-24T11:26:43.977Z,14.90
2022-09-24T11:27:43.961Z,14.50
2022-09-24T11:28:43.956Z,13.70
2022-09-24T11:29:43.928Z,13.60
2022-09-24T11:30:43.925Z,12.80
2022-09-24T11:31:43.968Z,13.40
2022-09-24T11:32:43.901Z,15.70
2022-09-24T11:33:43.868Z,14.30
2022-09-24T11:34:43.856Z,12.50
2022-09-24T11:35:43.838Z,14.00
2022-09-24T11:36:43.822Z,14.10
2022-09-24T11:37:43.806Z,14.50
2022-09-24T11:38:43.792Z,13.70
2022-09-24T11:39:43.778Z,13.70
2022-09-24T11:40:43.901Z,14.20
2022-09-24T11:41:43.770Z,10.90
2022-09-24T11:42:43.726Z,13.50
2022-09-24T11:43:43.711Z,13.40
2022-09-24T11:44:43.698Z,12.20
2022-09-24T11:45:43.680Z,12.20
2022-09-24T11:46:43.734Z,12.10
2022-09-24T11:47:43.653Z,12.80
2022-09-24T11:48:43.661Z,13.70
2022-09-24T11:49:43.619Z,13.70
2022-09-24T11:50:47.367Z,14.80
2022-09-24T11:51:43.591Z,13.50
2022-09-24T11:52:43.574Z,12.40
2022-09-24T11:53:43.551Z,13.10
2022-09-24T11:54:43.545Z,12.60
2022-09-24T11:55:43.522Z,13.30
2022-09-24T11:56:43.508Z,13.20
2022-09-24T11:57:43.490Z,13.00
2022-09-24T11:58:43.476Z,12.30
2022-09-24T11:59:43.460Z,15.10
2022-09-24T12:00:43.448Z,13.90
2022-09-24T12:01:43.469Z,12.20
2022-09-24T12:02:43.468Z,15.10
2022-09-24T12:03:43.399Z,14.10
2022-09-24T12:04:43.405Z,12.70
2022-09-24T12:05:43.366Z,12.70
2022-09-24T12:06:43.353Z,14.20
2022-09-24T12:07:43.336Z,13.70
2022-09-24T12:08:43.357Z,12.80
2022-09-24T12:09:43.301Z,14.70
2022-09-24T12:10:43.288Z,13.80
2022-09-24T12:11:43.272Z,13.80
2022-09-24T12:12:43.257Z,12.30
2022-09-24T12:13:43.240Z,14.40
2022-09-24T12:14:43.228Z,13.10
2022-09-24T12:15:43.268Z,13.90
2022-09-24T12:16:43.193Z,12.90
2022-09-24T12:17:43.176Z,13.30
2022-09-24T12:18:43.161Z,13.80
2022-09-24T12:19:43.145Z,12.20
2022-09-24T12:20:43.159Z,12.20
2022-09-24T12:21:43.120Z,11.90
2022-09-24T12:22:43.105Z,12.60
2022-09-24T12:23:43.091Z,15.00
2022-09-24T12:24:43.069Z,11.90
2022-09-24T12:25:43.053Z,12.10
2022-09-24T12:26:43.037Z,12.70
2022-09-24T12:27:43.021Z,11.50
2022-09-24T12:28:43.016Z,11.60
2022-09-24T12:29:42.990Z,11.80
2022-09-24T12:30:42.989Z,11.80
2022-09-24T12:31:43.157Z,12.50
2022-09-24T12:32:42.946Z,14.00
2022-09-24T12:33:42.926Z,12.20
2022-09-24T12:34:42.914Z,13.30
2022-09-24T12:35:42.904Z,12.00
2022-09-24T12:36:42.903Z,11.00
2022-09-24T12:37:42.862Z,11.20
2022-09-24T12:38:42.856Z,11.20
2022-09-24T12:39:42.832Z,11.70
2022-09-24T12:40:42.878Z,11.10
2022-09-24T12:41:42.801Z,11.70
2022-09-24T12:42:42.784Z,11.90
2022-09-24T12:43:42.767Z,12.10
2022-09-24T12:44:42.750Z,12.50
2022-09-24T12:45:42.734Z,11.90
2022-09-24T12:46:42.802Z,11.80
2022-09-24T12:47:42.707Z,12.10
2022-09-24T12:48:42.688Z,11.60
2022-09-24T12:49:42.674Z,11.30
2022-09-24T12:50:42.659Z,10.10
2022-09-24T12:51:42.641Z,10.80
2022-09-24T12:52:42.645Z,11.60